Terminal Aerodrome Forecast
Issued by NWS Spokane, WA

Home | Current Version | Previous Version | Text Only | Print | Product List | Glossary On
Versions: 1 2 3 4 5 6 7 8 9 10 11 12 13 14 15 16 17
000
FTUS46 KOTX 230756 AAA
TAFLWS
TAF AMD
KLWS 230756Z 2308/2406 08005KT P6SM BCFG FEW006
     FM231500 VRB02KT 3SM BR SCT005 BKN011
     FM232200 33004KT P6SM BKN015
     FM240400 27003KT 6SM BR BKN013=

USA.gov is the U.S. government's official web portal to all federal, state and local government web resources and services.